createdAt,value
2023-02-11T00:01:42.658Z,21.48
2023-02-11T00:04:12.789Z,24.70
2023-02-11T00:06:45.720Z,24.05
2023-02-11T00:09:15.998Z,22.83
2023-02-11T00:11:48.813Z,21.25
2023-02-11T00:14:19.093Z,27.88
2023-02-11T00:16:49.294Z,21.52
2023-02-11T00:19:22.413Z,28.10
2023-02-11T00:21:55.203Z,29.67
2023-02-11T00:24:25.406Z,24.20
2023-02-11T00:26:55.568Z,27.05
2023-02-11T00:29:25.875Z,20.92
2023-02-11T00:31:56.259Z,26.27
2023-02-11T00:34:26.546Z,20.77
2023-02-11T00:36:59.280Z,23.30
2023-02-11T00:39:29.986Z,18.95
2023-02-11T00:42:00.472Z,25.73
2023-02-11T00:44:30.679Z,22.88
2023-02-11T00:47:00.896Z,21.40
2023-02-11T00:49:31.106Z,27.85
2023-02-11T00:52:03.969Z,25.95
2023-02-11T00:54:34.114Z,25.13
2023-02-11T00:57:04.540Z,25.33
2023-02-11T00:59:34.850Z,22.33
2023-02-11T01:02:05.702Z,25.73
2023-02-11T01:04:36.012Z,24.52
2023-02-11T01:07:08.765Z,35.97
2023-02-11T01:09:41.708Z,29.85
2023-02-11T01:12:11.958Z,30.58
2023-02-11T01:14:45.028Z,27.70
2023-02-11T01:17:15.514Z,29.47
2023-02-11T01:19:45.927Z,23.48
2023-02-11T01:22:18.723Z,23.55
2023-02-11T01:24:48.885Z,30.10
2023-02-11T01:27:19.116Z,23.23
2023-02-11T01:29:49.433Z,26.63
2023-02-11T01:32:19.705Z,20.58
2023-02-11T01:34:49.992Z,19.08
2023-02-11T01:37:22.890Z,21.92
2023-02-11T01:39:53.136Z,18.17
2023-02-11T01:42:26.736Z,17.30
2023-02-11T01:44:59.814Z,25.20
2023-02-11T01:47:30.038Z,18.03
2023-02-11T01:50:05.079Z,19.08
2023-02-11T01:52:42.763Z,22.80
2023-02-11T01:55:33.856Z,24.20
2023-02-11T01:58:08.031Z,25.05
2023-02-11T02:00:42.818Z,23.13
2023-02-11T02:03:17.871Z,27.50
2023-02-11T02:05:55.029Z,25.95
2023-02-11T02:08:34.712Z,20.50
2023-02-11T02:11:05.818Z,23.40
2023-02-11T02:13:37.742Z,26.05
2023-02-11T02:16:10.750Z,26.00
2023-02-11T02:18:51.283Z,23.30
2023-02-11T02:22:17.023Z,18.35
2023-02-11T02:25:01.481Z,21.98
2023-02-11T02:27:53.540Z,21.42
2023-02-11T02:30:49.653Z,23.02
2023-02-11T02:33:32.583Z,24.08
2023-02-11T02:36:10.588Z,29.90
2023-02-11T02:38:47.000Z,24.77
2023-02-11T02:41:20.459Z,25.52
2023-02-11T02:43:53.005Z,21.88
2023-02-11T02:46:25.371Z,20.00
2023-02-11T02:48:59.646Z,24.70
2023-02-11T02:51:50.611Z,25.17
2023-02-11T02:54:39.799Z,19.85
2023-02-11T02:57:25.289Z,20.42
2023-02-11T03:00:11.313Z,17.35
2023-02-11T03:02:50.791Z,23.30
2023-02-11T03:05:30.011Z,17.02
2023-02-11T03:08:08.539Z,25.52
2023-02-11T03:10:43.307Z,22.13
2023-02-11T03:13:18.781Z,20.65
2023-02-11T03:15:55.154Z,21.45
2023-02-11T03:18:30.238Z,23.70
2023-02-11T03:21:04.948Z,20.95
2023-02-11T03:23:40.334Z,17.73
2023-02-11T03:26:17.035Z,23.67
2023-02-11T03:28:56.315Z,23.33
2023-02-11T03:31:31.660Z,31.10
2023-02-11T03:34:08.825Z,21.83
2023-02-11T03:36:48.203Z,21.38
2023-02-11T03:39:23.626Z,23.27
2023-02-11T03:41:58.673Z,24.25
2023-02-11T03:44:34.244Z,21.58
2023-02-11T03:47:06.977Z,27.95
2023-02-11T03:49:42.191Z,32.03
2023-02-11T03:52:16.872Z,26.98
2023-02-11T03:54:49.221Z,21.90
2023-02-11T03:57:19.597Z,33.08
2023-02-11T03:59:54.806Z,24.88
2023-02-11T04:02:27.095Z,29.25
2023-02-11T04:04:57.356Z,25.45
2023-02-11T04:07:30.124Z,20.40
2023-02-11T04:10:00.380Z,29.42
2023-02-11T04:12:30.558Z,24.02
2023-02-11T04:15:00.776Z,16.60
2023-02-11T04:17:30.904Z,28.20
2023-02-11T04:20:01.077Z,23.65
2023-02-11T04:22:34.012Z,29.13
2023-02-11T04:25:04.228Z,29.83
2023-02-11T04:27:34.622Z,27.25
2023-02-11T04:30:05.098Z,28.60
2023-02-11T04:32:35.424Z,25.05
2023-02-11T04:35:12.029Z,22.48
2023-02-11T04:37:44.873Z,23.02
2023-02-11T04:40:15.170Z,22.85
2023-02-11T04:42:45.287Z,27.45
2023-02-11T04:45:15.533Z,17.48
2023-02-11T04:47:45.807Z,23.45
2023-02-11T04:50:16.065Z,33.05
2023-02-11T04:52:48.866Z,31.15
2023-02-11T04:55:19.214Z,24.15
2023-02-11T04:57:49.592Z,24.83
2023-02-11T05:00:20.383Z,19.60
2023-02-11T05:02:50.494Z,27.15
2023-02-11T05:05:20.848Z,27.65
2023-02-11T05:07:53.664Z,24.40
2023-02-11T05:10:23.901Z,25.67
2023-02-11T05:12:55.899Z,25.35
2023-02-11T05:15:26.335Z,25.48
2023-02-11T05:17:57.277Z,22.88
2023-02-11T05:20:30.604Z,24.20
2023-02-11T05:23:03.483Z,25.42
2023-02-11T05:25:33.658Z,25.88
2023-02-11T05:28:03.950Z,27.67
2023-02-11T05:30:35.023Z,26.85
2023-02-11T05:33:05.321Z,26.40
2023-02-11T05:35:36.508Z,20.52
2023-02-11T05:38:10.603Z,24.33
2023-02-11T05:40:40.812Z,25.63
2023-02-11T05:43:11.034Z,21.70
2023-02-11T05:45:43.610Z,26.45
2023-02-11T05:48:14.084Z,23.02
2023-02-11T05:50:44.553Z,27.27
2023-02-11T05:53:17.556Z,24.25
2023-02-11T05:55:48.165Z,21.00
2023-02-11T05:58:18.534Z,23.55
2023-02-11T06:00:49.056Z,26.30
2023-02-11T06:03:22.242Z,25.45
2023-02-11T06:05:52.612Z,20.98
2023-02-11T06:08:25.615Z,24.17
2023-02-11T06:10:55.881Z,24.45
2023-02-11T06:13:26.134Z,21.10
2023-02-11T06:16:00.434Z,25.52
2023-02-11T06:18:30.992Z,33.92
2023-02-11T06:21:01.213Z,20.90
2023-02-11T06:23:33.978Z,25.98
2023-02-11T06:26:05.502Z,21.38
2023-02-11T06:28:36.274Z,30.48
2023-02-11T06:31:12.549Z,23.92
2023-02-11T06:33:42.942Z,28.48
2023-02-11T06:36:18.182Z,37.88
2023-02-11T06:38:51.886Z,32.78
2023-02-11T06:41:25.625Z,27.60
2023-02-11T06:43:56.691Z,28.25
2023-02-11T06:46:26.948Z,20.70
2023-02-11T06:48:57.152Z,45.03
2023-02-11T06:51:28.482Z,39.78
2023-02-11T06:54:01.252Z,34.30
2023-02-11T06:56:31.441Z,32.00
2023-02-11T06:59:02.197Z,30.50
2023-02-11T07:01:32.532Z,33.65
2023-02-11T07:04:03.134Z,31.65
2023-02-11T07:06:33.434Z,31.42
2023-02-11T07:09:07.165Z,32.20
2023-02-11T07:11:37.727Z,41.25
2023-02-11T07:14:11.085Z,39.38
2023-02-11T07:16:41.682Z,34.03
2023-02-11T07:19:11.999Z,30.30
2023-02-11T07:21:43.035Z,28.95
2023-02-11T07:24:16.326Z,26.08
2023-02-11T07:26:46.510Z,41.55
2023-02-11T07:29:16.753Z,32.00
2023-02-11T07:31:47.169Z,40.25
2023-02-11T07:34:17.678Z,26.98
2023-02-11T07:36:49.142Z,29.33
2023-02-11T07:39:22.982Z,35.65
2023-02-11T07:41:53.152Z,36.60
2023-02-11T07:44:23.563Z,30.95
2023-02-11T07:46:54.042Z,34.15
2023-02-11T07:49:24.486Z,32.72
2023-02-11T07:51:54.769Z,37.55
2023-02-11T07:54:28.206Z,40.15
2023-02-11T07:56:58.922Z,30.60
2023-02-11T07:59:29.196Z,37.47
2023-02-11T08:01:59.695Z,34.97
2023-02-11T08:04:29.880Z,33.72
2023-02-11T08:07:00.084Z,33.05
2023-02-11T08:09:34.558Z,44.63
2023-02-11T08:12:04.949Z,36.03
2023-02-11T08:14:35.541Z,42.17
2023-02-11T08:17:06.701Z,36.50
2023-02-11T08:19:37.252Z,31.42
2023-02-11T08:22:07.600Z,38.95
2023-02-11T08:24:41.411Z,35.47
2023-02-11T08:27:11.714Z,37.05
2023-02-11T08:29:41.914Z,40.60
2023-02-11T08:32:12.229Z,34.45
2023-02-11T08:34:42.493Z,36.53
2023-02-11T08:37:12.719Z,42.58
2023-02-11T08:39:47.382Z,29.55
2023-02-11T08:42:18.295Z,39.42
2023-02-11T08:44:48.536Z,34.20
2023-02-11T08:47:18.779Z,32.40
2023-02-11T08:49:48.965Z,38.65
2023-02-11T08:52:19.338Z,31.92
2023-02-11T08:54:52.155Z,33.78
2023-02-11T08:57:22.349Z,35.80
2023-02-11T08:59:54.871Z,37.67
2023-02-11T09:02:25.177Z,32.47
2023-02-11T09:04:56.491Z,29.98
2023-02-11T09:07:26.743Z,34.42
2023-02-11T09:09:59.607Z,27.33
2023-02-11T09:12:29.953Z,33.97
2023-02-11T09:15:00.115Z,27.42
2023-02-11T09:17:30.390Z,35.10
2023-02-11T09:20:03.588Z,24.90
2023-02-11T09:22:33.847Z,35.93
2023-02-11T09:25:06.931Z,34.92
2023-02-11T09:27:37.111Z,38.45
2023-02-11T09:30:08.475Z,36.55
2023-02-11T09:32:38.855Z,50.33
2023-02-11T09:35:09.922Z,40.05
2023-02-11T09:37:40.099Z,41.90
2023-02-11T09:40:14.084Z,43.38
2023-02-11T09:42:50.927Z,46.05
2023-02-11T09:45:23.739Z,42.63
2023-02-11T09:47:58.565Z,41.40
2023-02-11T09:50:35.449Z,36.42
2023-02-11T09:53:08.589Z,49.67
2023-02-11T09:55:43.749Z,45.70
2023-02-11T09:58:19.843Z,46.75
2023-02-11T10:00:55.678Z,45.50
2023-02-11T10:03:43.751Z,36.50
2023-02-11T10:06:34.172Z,35.47
2023-02-11T10:09:13.744Z,43.85
2023-02-11T10:11:55.338Z,36.05
2023-02-11T10:14:48.366Z,39.13
2023-02-11T10:17:27.613Z,33.72
2023-02-11T10:20:10.147Z,32.50
2023-02-11T10:22:47.038Z,35.92
2023-02-11T10:25:25.506Z,37.92
2023-02-11T10:28:02.318Z,35.83
2023-02-11T10:30:35.928Z,39.22
2023-02-11T10:33:14.953Z,39.42
2023-02-11T10:35:45.846Z,38.28
2023-02-11T10:38:16.116Z,36.10
2023-02-11T10:40:46.419Z,34.90
2023-02-11T10:43:22.070Z,42.92
2023-02-11T10:45:53.930Z,41.67
2023-02-11T10:48:41.848Z,36.78
2023-02-11T10:51:20.706Z,43.58
2023-02-11T10:53:52.715Z,36.72
2023-02-11T10:56:29.650Z,43.50
2023-02-11T10:59:07.542Z,41.00
2023-02-11T11:01:44.292Z,36.22
2023-02-11T11:04:37.647Z,36.33
2023-02-11T11:07:17.606Z,37.45
2023-02-11T11:09:51.642Z,42.42
2023-02-11T11:15:03.866Z,42.67
2023-02-11T11:17:34.131Z,42.80
2023-02-11T11:20:23.490Z,39.80
2023-02-11T11:22:57.041Z,37.28
2023-02-11T11:25:29.756Z,35.92
2023-02-11T11:28:03.757Z,41.90
2023-02-11T11:30:44.674Z,40.97
2023-02-11T11:33:26.859Z,31.83
2023-02-11T11:36:03.850Z,33.67
2023-02-11T11:38:36.033Z,35.70
2023-02-11T11:41:28.843Z,33.00
2023-02-11T11:44:03.975Z,37.97
2023-02-11T11:46:39.681Z,31.13
2023-02-11T11:49:22.465Z,31.70
2023-02-11T11:52:01.651Z,30.25
2023-02-11T11:54:34.756Z,32.95
2023-02-11T11:57:14.328Z,32.55
2023-02-11T11:59:44.980Z,32.05
2023-02-11T12:02:45.639Z,35.03
2023-02-11T12:05:22.083Z,31.83
2023-02-11T12:08:06.964Z,35.00
2023-02-11T12:10:50.552Z,27.30
2023-02-11T12:13:41.976Z,25.50
2023-02-11T12:16:22.484Z,30.90
2023-02-11T12:19:17.386Z,29.08
2023-02-11T12:22:01.201Z,34.45
2023-02-11T12:24:48.658Z,29.63
2023-02-11T12:27:31.034Z,34.88
2023-02-11T12:30:11.739Z,35.03
2023-02-11T12:32:51.084Z,36.63
2023-02-11T12:35:32.804Z,34.45
2023-02-11T12:38:19.496Z,25.73
2023-02-11T12:40:58.731Z,34.70
2023-02-11T12:43:34.822Z,33.75
2023-02-11T12:46:22.500Z,28.77
2023-02-11T12:49:15.791Z,26.73
2023-02-11T12:52:01.847Z,25.98
2023-02-11T12:54:35.931Z,29.15
2023-02-11T12:59:55.651Z,25.88
2023-02-11T13:02:36.612Z,24.23
2023-02-11T13:05:14.415Z,27.55
2023-02-11T13:07:50.525Z,27.60
2023-02-11T13:10:30.606Z,24.85
2023-02-11T13:13:15.688Z,27.23
2023-02-11T13:15:48.951Z,29.67
2023-02-11T13:18:44.975Z,27.17
2023-02-11T13:21:51.739Z,29.52
2023-02-11T13:24:33.864Z,28.67
2023-02-11T13:27:12.516Z,29.83
2023-02-11T13:30:06.581Z,29.38
2023-02-11T13:33:08.621Z,26.02
2023-02-11T13:35:40.333Z,27.98
2023-02-11T13:38:22.413Z,26.48
2023-02-11T13:41:07.283Z,28.77
2023-02-11T13:43:39.433Z,24.15
2023-02-11T13:46:12.631Z,26.63
2023-02-11T13:48:49.996Z,29.17
2023-02-11T13:51:37.533Z,29.00
2023-02-11T13:54:12.015Z,31.10
2023-02-11T13:56:46.414Z,25.83
2023-02-11T13:59:46.504Z,28.48
2023-02-11T14:02:39.564Z,25.02
2023-02-11T14:05:46.558Z,31.98
2023-02-11T14:08:33.362Z,26.05
2023-02-11T14:11:08.603Z,27.23
2023-02-11T14:14:19.760Z,24.95
2023-02-11T14:17:22.338Z,25.77
2023-02-11T14:19:53.501Z,23.38
2023-02-11T14:22:28.885Z,25.90
2023-02-11T14:25:01.629Z,26.40
2023-02-11T14:27:38.167Z,24.85
2023-02-11T14:30:30.011Z,22.17
2023-02-11T14:33:24.048Z,26.13
2023-02-11T14:36:08.953Z,27.65
2023-02-11T14:38:51.930Z,24.33
2023-02-11T14:41:26.004Z,30.15
2023-02-11T14:44:00.173Z,27.10
2023-02-11T14:49:06.456Z,25.13
2023-02-11T14:51:41.473Z,24.38
2023-02-11T14:54:17.124Z,26.98
2023-02-11T14:56:48.163Z,28.13
2023-02-11T14:59:21.494Z,24.20
2023-02-11T15:01:57.180Z,28.07
2023-02-11T15:04:29.725Z,16.88
2023-02-11T15:07:02.239Z,14.40
2023-02-11T15:09:40.498Z,16.27
2023-02-11T15:12:20.410Z,18.63
2023-02-11T15:14:53.630Z,18.35
2023-02-11T15:17:29.430Z,19.20
2023-02-11T15:20:03.144Z,19.00
2023-02-11T15:22:37.531Z,24.33
2023-02-11T15:25:16.331Z,29.30
2023-02-11T15:27:48.361Z,27.88
2023-02-11T15:30:30.030Z,26.20
2023-02-11T15:33:08.934Z,28.02
2023-02-11T15:35:42.956Z,23.60
2023-02-11T15:38:15.747Z,29.73
2023-02-11T15:40:56.640Z,25.25
2023-02-11T15:43:27.441Z,29.13
2023-02-11T15:46:03.017Z,28.20
2023-02-11T15:48:43.404Z,24.80
2023-02-11T15:51:22.889Z,23.50
2023-02-11T15:53:57.098Z,20.13
2023-02-11T15:56:33.152Z,29.92
2023-02-11T15:59:14.850Z,21.02
2023-02-11T16:01:45.644Z,22.35
2023-02-11T16:04:25.154Z,19.92
2023-02-11T16:06:57.168Z,27.95
2023-02-11T16:09:34.780Z,24.40
2023-02-11T16:12:07.635Z,23.73
2023-02-11T16:14:39.892Z,26.05
2023-02-11T16:17:13.225Z,30.67
2023-02-11T16:19:50.870Z,24.95
2023-02-11T16:22:27.527Z,24.27
2023-02-11T16:25:03.002Z,20.58
2023-02-11T16:27:40.964Z,20.05
2023-02-11T16:30:27.288Z,23.05
2023-02-11T16:32:57.747Z,24.10
2023-02-11T16:35:30.802Z,22.70
2023-02-11T16:38:01.322Z,22.23
2023-02-11T16:40:32.867Z,25.92
2023-02-11T16:43:03.360Z,24.00
2023-02-11T16:45:40.408Z,25.08
2023-02-11T16:48:12.610Z,27.83
2023-02-11T16:50:56.441Z,28.98
2023-02-11T16:53:42.194Z,41.55
2023-02-11T16:56:18.988Z,42.63
2023-02-11T16:58:49.223Z,35.03
2023-02-11T17:01:19.537Z,32.97
2023-02-11T17:03:50.328Z,32.30
2023-02-11T17:06:20.928Z,36.67
2023-02-11T17:08:54.148Z,29.83
2023-02-11T17:11:24.759Z,35.13
2023-02-11T17:13:55.198Z,29.30
2023-02-11T17:16:32.642Z,33.35
2023-02-11T17:19:02.900Z,30.90
2023-02-11T17:21:36.544Z,31.95
2023-02-11T17:24:10.758Z,32.10
2023-02-11T17:26:46.205Z,34.42
2023-02-11T17:29:18.318Z,35.20
2023-02-11T17:31:49.879Z,29.63
2023-02-11T17:34:20.855Z,33.75
2023-02-11T17:36:51.987Z,32.92
2023-02-11T17:39:25.086Z,31.83
2023-02-11T17:41:55.624Z,34.57
2023-02-11T17:44:26.018Z,29.10
2023-02-11T17:46:56.529Z,30.65
2023-02-11T17:49:27.705Z,29.92
2023-02-11T17:51:58.243Z,30.20
2023-02-11T17:54:31.053Z,29.88
2023-02-11T17:57:02.619Z,28.50
2023-02-11T17:59:35.600Z,31.50
2023-02-11T18:02:06.632Z,31.05
2023-02-11T18:04:37.474Z,25.73
2023-02-11T18:07:07.962Z,28.58
2023-02-11T18:09:44.658Z,26.63
2023-02-11T18:12:18.011Z,28.30
2023-02-11T18:14:48.430Z,28.27
2023-02-11T18:17:18.911Z,30.52
2023-02-11T18:19:49.711Z,26.45
2023-02-11T18:22:21.975Z,29.10
2023-02-11T18:24:57.510Z,31.77
2023-02-11T18:27:28.246Z,27.73
2023-02-11T18:30:01.617Z,26.33
2023-02-11T18:32:33.979Z,29.63
2023-02-11T18:35:04.535Z,34.20
2023-02-11T18:37:34.995Z,28.25
2023-02-11T18:40:08.702Z,29.92
2023-02-11T18:42:39.991Z,33.10
2023-02-11T18:45:12.357Z,29.33
2023-02-11T18:47:43.755Z,31.48
2023-02-11T18:50:26.611Z,29.90
2023-02-11T18:53:11.364Z,32.95
2023-02-11T18:55:47.042Z,32.13
2023-02-11T18:58:18.180Z,31.98
2023-02-11T19:00:51.192Z,28.50
2023-02-11T19:03:22.389Z,30.77
2023-02-11T19:05:54.686Z,30.27
2023-02-11T19:08:25.216Z,30.17
2023-02-11T19:10:58.398Z,32.65
2023-02-11T19:13:31.595Z,36.15
2023-02-11T19:16:02.278Z,33.38
2023-02-11T19:18:32.884Z,32.85
2023-02-11T19:21:03.753Z,36.60
2023-02-11T19:23:34.251Z,37.50
2023-02-11T19:26:07.829Z,30.33
2023-02-11T19:28:38.340Z,35.95
2023-02-11T19:31:10.342Z,37.58
2023-02-11T19:33:40.942Z,34.38
2023-02-11T19:36:16.357Z,32.83
2023-02-11T19:38:48.267Z,33.50
2023-02-11T19:41:23.206Z,40.33
2023-02-11T19:43:56.720Z,36.33
2023-02-11T19:46:28.343Z,32.85
2023-02-11T19:48:59.039Z,36.55
2023-02-11T19:51:31.068Z,31.00
2023-02-11T19:54:02.527Z,33.78
2023-02-11T19:56:35.549Z,30.85
2023-02-11T19:59:09.082Z,36.40
2023-02-11T20:01:39.955Z,33.55
2023-02-11T20:04:11.226Z,31.40
2023-02-11T20:06:41.725Z,30.50
2023-02-11T20:09:15.963Z,30.23
2023-02-11T20:11:49.513Z,35.50
2023-02-11T20:14:19.682Z,33.93
2023-02-11T20:16:50.468Z,30.65
2023-02-11T20:19:22.550Z,32.20
2023-02-11T20:21:56.064Z,34.45
2023-02-11T20:24:27.417Z,31.88
2023-02-11T20:27:01.409Z,35.28
2023-02-11T20:32:03.607Z,31.27
2023-02-11T20:34:34.547Z,31.80
2023-02-11T20:37:06.172Z,29.13
2023-02-11T20:39:41.002Z,36.65
2023-02-11T20:42:15.228Z,29.70
2023-02-11T20:44:45.758Z,33.70
2023-02-11T20:47:16.143Z,32.90
2023-02-11T20:49:46.623Z,27.77
2023-02-11T20:52:17.045Z,31.48
2023-02-11T20:54:47.462Z,32.17
2023-02-11T20:57:20.550Z,34.85
2023-02-11T20:59:50.966Z,34.07
2023-02-11T21:02:24.367Z,38.92
2023-02-11T21:04:54.991Z,39.60
2023-02-11T21:07:28.061Z,39.40
2023-02-11T21:10:03.572Z,38.50
2023-02-11T21:12:36.413Z,40.13
2023-02-11T21:15:09.704Z,35.87
2023-02-11T21:17:40.173Z,35.93
2023-02-11T21:20:12.008Z,35.13
2023-02-11T21:22:42.983Z,32.35
2023-02-11T21:25:13.475Z,33.65
2023-02-11T21:27:46.624Z,40.90
2023-02-11T21:30:17.748Z,47.97
2023-02-11T21:32:48.218Z,46.55
2023-02-11T21:35:18.685Z,44.75
2023-02-11T21:37:50.275Z,52.28
2023-02-11T21:40:27.935Z,46.85
2023-02-11T21:43:01.814Z,44.92
2023-02-11T21:45:32.871Z,42.95
2023-02-11T21:48:03.415Z,50.13
2023-02-11T21:50:33.709Z,48.10
2023-02-11T21:53:06.642Z,45.83
2023-02-11T21:55:38.016Z,50.80
2023-02-11T21:58:13.702Z,43.13
2023-02-11T22:00:44.166Z,38.33
2023-02-11T22:03:15.387Z,45.20
2023-02-11T22:05:48.415Z,45.58
2023-02-11T22:08:20.261Z,37.20
2023-02-11T22:10:50.570Z,39.50
2023-02-11T22:13:23.396Z,42.20
2023-02-11T22:16:00.821Z,37.73
2023-02-11T22:18:31.369Z,42.92
2023-02-11T22:21:02.868Z,48.50
2023-02-11T22:23:33.821Z,38.15
2023-02-11T22:26:07.758Z,42.85
2023-02-11T22:31:15.236Z,40.08
2023-02-11T22:33:46.191Z,36.22
2023-02-11T22:36:23.921Z,37.03
2023-02-11T22:38:54.853Z,32.88
2023-02-11T22:41:26.175Z,40.55
2023-02-11T22:43:59.359Z,34.53
2023-02-11T22:46:30.044Z,35.57
2023-02-11T22:49:00.372Z,30.48
2023-02-11T22:51:32.765Z,31.90
2023-02-11T22:54:04.850Z,37.78
2023-02-11T22:56:37.482Z,36.33
2023-02-11T22:59:13.728Z,43.50
2023-02-11T23:01:44.781Z,33.42
2023-02-11T23:04:19.321Z,38.58
2023-02-11T23:06:50.579Z,38.58
2023-02-11T23:09:20.911Z,37.05
2023-02-11T23:11:54.459Z,37.45
2023-02-11T23:14:27.527Z,35.75
2023-02-11T23:16:57.834Z,34.70
2023-02-11T23:19:28.113Z,33.65
2023-02-11T23:21:58.775Z,30.15
2023-02-11T23:24:29.035Z,33.08
2023-02-11T23:26:59.262Z,31.02
2023-02-11T23:29:32.153Z,31.50
2023-02-11T23:32:02.426Z,27.23
2023-02-11T23:34:32.610Z,28.52
2023-02-11T23:37:02.820Z,33.33
2023-02-11T23:39:33.202Z,28.50
2023-02-11T23:42:03.405Z,32.05
2023-02-11T23:44:36.227Z,28.40
2023-02-11T23:47:06.581Z,28.73
2023-02-11T23:49:36.763Z,31.02
2023-02-11T23:52:06.969Z,30.90
2023-02-11T23:54:37.170Z,30.27
2023-02-11T23:57:07.341Z,30.55
2023-02-11T23:59:41.831Z,29.88
